createdAt,value
2018-10-12T00:03:53.121Z,13.70
2018-10-12T00:13:37.308Z,13.20
2018-10-12T00:22:18.927Z,13.30
2018-10-12T00:26:23.002Z,13.00
2018-10-12T00:30:27.402Z,13.13
2018-10-12T00:34:31.436Z,13.23
2018-10-12T00:38:35.376Z,13.03
2018-10-12T00:42:39.533Z,13.50
2018-10-12T00:46:44.645Z,13.40
2018-10-12T00:50:48.065Z,13.20
2018-10-12T00:54:51.480Z,13.23
2018-10-12T00:58:54.887Z,12.37
2018-10-12T01:02:58.523Z,13.57
2018-10-12T01:07:01.920Z,12.93
2018-10-12T01:11:05.333Z,12.40
2018-10-12T01:15:08.837Z,11.60
2018-10-12T01:19:12.226Z,11.83
2018-10-12T01:23:15.612Z,11.60
2018-10-12T01:27:19.089Z,11.43
2018-10-12T01:31:22.553Z,11.37
2018-10-12T01:35:25.942Z,11.30
2018-10-12T01:39:29.374Z,11.20
2018-10-12T01:43:32.797Z,11.20
2018-10-12T01:47:36.237Z,11.07
2018-10-12T01:51:39.633Z,10.50
2018-10-12T01:55:43.040Z,10.50
2018-10-12T01:59:46.492Z,10.60
2018-10-12T02:03:49.885Z,10.63
2018-10-12T02:07:53.307Z,10.80
2018-10-12T02:11:56.769Z,11.30
2018-10-12T02:16:00.163Z,10.60
2018-10-12T02:20:03.572Z,10.73
2018-10-12T02:24:07.030Z,10.17
2018-10-12T02:28:10.471Z,10.33
2018-10-12T02:32:13.860Z,10.20
2018-10-12T02:36:17.255Z,11.10
2018-10-12T02:40:20.816Z,10.83
2018-10-12T02:44:24.188Z,9.93
2018-10-12T02:48:27.616Z,10.03
2018-10-12T02:52:30.997Z,10.17
2018-10-12T02:56:34.389Z,10.10
2018-10-12T03:00:37.800Z,9.67
2018-10-12T03:04:41.382Z,9.07
2018-10-12T03:08:45.021Z,10.03
2018-10-12T03:12:48.432Z,9.13
2018-10-12T03:16:51.828Z,9.13
2018-10-12T03:20:55.216Z,8.77
2018-10-12T03:24:58.613Z,8.13
2018-10-12T03:29:02.004Z,8.90
2018-10-12T03:33:05.597Z,8.77
2018-10-12T03:37:09.082Z,8.93
2018-10-12T03:41:12.530Z,9.10
2018-10-12T03:45:15.966Z,8.40
2018-10-12T03:49:19.371Z,8.93
2018-10-12T03:53:22.805Z,8.23
2018-10-12T03:57:26.219Z,8.67
2018-10-12T04:01:29.653Z,8.47
2018-10-12T04:05:33.035Z,8.67
2018-10-12T04:09:36.537Z,8.00
2018-10-12T04:13:39.925Z,8.77
2018-10-12T04:17:43.348Z,9.03
2018-10-12T04:21:46.724Z,8.90
2018-10-12T04:25:50.106Z,9.27
2018-10-12T04:29:53.479Z,8.57
2018-10-12T04:33:56.872Z,8.93
2018-10-12T04:38:00.294Z,8.63
2018-10-12T04:42:03.703Z,8.63
2018-10-12T04:46:10.218Z,8.67
2018-10-12T04:50:13.676Z,8.70
2018-10-12T04:54:17.350Z,9.13
2018-10-12T04:58:20.745Z,8.37
2018-10-12T05:02:24.241Z,9.27
2018-10-12T05:06:27.853Z,8.97
2018-10-12T05:10:31.307Z,9.10
2018-10-12T05:14:34.741Z,8.93
2018-10-12T05:18:38.202Z,8.73
2018-10-12T05:22:41.611Z,8.97
2018-10-12T05:26:44.997Z,8.40
2018-10-12T05:30:48.399Z,9.10
2018-10-12T05:34:51.757Z,8.30
2018-10-12T05:38:55.117Z,8.40
2018-10-12T05:42:58.646Z,9.10
2018-10-12T05:47:01.913Z,9.07
2018-10-12T05:51:06.258Z,8.90
2018-10-12T05:55:09.813Z,8.80
2018-10-12T05:59:13.337Z,8.57
2018-10-12T06:03:16.795Z,9.03
2018-10-12T06:07:20.233Z,8.50
2018-10-12T06:11:23.757Z,8.30
2018-10-12T06:15:27.241Z,8.97
2018-10-12T06:19:30.609Z,9.17
2018-10-12T06:23:34.120Z,8.80
2018-10-12T06:27:37.534Z,8.43
2018-10-12T06:31:40.907Z,8.67
2018-10-12T06:35:44.321Z,8.63
2018-10-12T06:39:47.728Z,8.90
2018-10-12T06:43:51.132Z,9.50
2018-10-12T06:47:54.536Z,8.23
2018-10-12T06:51:57.957Z,8.30
2018-10-12T06:56:01.377Z,8.37
2018-10-12T07:00:05.287Z,8.30
2018-10-12T07:04:08.867Z,8.07
2018-10-12T07:08:12.259Z,9.13
2018-10-12T07:16:27.952Z,8.60
2018-10-12T07:20:31.352Z,7.80
2018-10-12T07:24:35.004Z,7.93
2018-10-12T07:28:38.501Z,7.60
2018-10-12T07:32:41.909Z,7.93
2018-10-12T07:36:45.354Z,7.67
2018-10-12T07:40:48.713Z,8.30
2018-10-12T07:44:52.127Z,8.33
2018-10-12T07:48:55.494Z,7.33
2018-10-12T07:52:58.932Z,7.73
2018-10-12T07:57:07.772Z,7.47
2018-10-12T08:01:11.143Z,7.13
2018-10-12T08:05:14.552Z,7.90
2018-10-12T08:09:18.007Z,7.50
2018-10-12T08:13:21.396Z,7.43
2018-10-12T08:17:24.816Z,6.30
2018-10-12T08:21:28.348Z,7.33
2018-10-12T08:25:31.719Z,6.30
2018-10-12T08:29:35.240Z,5.80
2018-10-12T08:33:39.039Z,6.13
2018-10-12T08:37:42.396Z,5.87
2018-10-12T08:41:45.955Z,5.40
2018-10-12T08:45:49.300Z,5.10
2018-10-12T08:49:52.759Z,4.30
2018-10-12T08:53:56.216Z,4.85
2018-10-12T08:57:59.619Z,4.30
2018-10-12T09:02:03.001Z,4.10
2018-10-12T09:06:06.392Z,3.77
2018-10-12T09:10:09.800Z,4.92
2018-10-12T09:14:13.176Z,3.87
2018-10-12T09:18:16.602Z,4.12
2018-10-12T09:22:20.004Z,4.00
2018-10-12T09:26:29.652Z,4.25
2018-10-12T09:30:33.043Z,4.50
2018-10-12T09:34:36.391Z,4.60
2018-10-12T09:38:39.844Z,4.62
2018-10-12T09:42:43.316Z,4.58
2018-10-12T09:46:46.782Z,3.83
2018-10-12T09:50:50.209Z,5.22
2018-10-12T09:54:53.704Z,4.12
2018-10-12T09:58:57.115Z,3.60
2018-10-12T10:03:05.880Z,3.70
2018-10-12T10:07:09.280Z,3.52
2018-10-12T10:11:12.729Z,3.47
2018-10-12T10:15:16.155Z,3.58
2018-10-12T10:19:19.540Z,3.35
2018-10-12T10:23:22.914Z,2.70
2018-10-12T10:27:26.306Z,2.90
2018-10-12T10:31:29.722Z,2.40
2018-10-12T10:35:33.129Z,2.33
2018-10-12T10:39:36.516Z,2.33
2018-10-12T10:43:39.901Z,2.37
2018-10-12T10:47:43.340Z,2.42
2018-10-12T10:51:47.017Z,2.30
2018-10-12T10:55:50.494Z,2.00
2018-10-12T10:59:53.898Z,2.05
2018-10-12T11:03:57.667Z,2.60
2018-10-12T11:08:01.063Z,2.60
2018-10-12T11:12:04.512Z,2.60
2018-10-12T11:16:08.074Z,2.58
2018-10-12T11:20:11.533Z,2.30
2018-10-12T11:24:14.985Z,2.70
2018-10-12T11:28:18.460Z,2.25
2018-10-12T11:32:21.900Z,2.27
2018-10-12T11:36:25.074Z,1.90
2018-10-12T11:40:28.601Z,2.22
2018-10-12T11:44:32.038Z,2.20
2018-10-12T11:48:35.584Z,2.17
2018-10-12T11:52:39.157Z,2.05
2018-10-12T11:56:42.951Z,2.17
2018-10-12T12:00:46.398Z,2.30
2018-10-12T12:04:49.583Z,2.25
2018-10-12T12:08:52.804Z,2.30
2018-10-12T12:12:55.988Z,2.80
2018-10-12T12:16:59.216Z,2.58
2018-10-12T12:21:02.360Z,2.80
2018-10-12T12:25:05.555Z,2.72
2018-10-12T12:29:08.725Z,2.50
2018-10-12T12:33:11.954Z,2.40
2018-10-12T12:37:15.351Z,2.55
2018-10-12T12:41:18.703Z,2.30
2018-10-12T12:45:22.407Z,2.50
2018-10-12T12:49:26.153Z,2.70
2018-10-12T12:53:29.348Z,2.50
2018-10-12T12:57:32.820Z,2.50
2018-10-12T13:01:36.816Z,2.50
2018-10-12T13:05:41.592Z,2.45
2018-10-12T13:09:45.658Z,2.30
2018-10-12T13:13:50.426Z,2.20
2018-10-12T13:17:53.998Z,2.50
2018-10-12T13:21:57.418Z,2.30
2018-10-12T13:26:01.146Z,2.52
2018-10-12T13:30:04.529Z,2.33
2018-10-12T13:34:08.206Z,2.00
2018-10-12T13:38:11.803Z,2.30
2018-10-12T13:42:15.361Z,2.22
2018-10-12T13:46:18.974Z,2.47
2018-10-12T13:50:22.381Z,2.52
2018-10-12T13:54:25.857Z,2.50
2018-10-12T13:58:29.216Z,2.55
2018-10-12T14:02:32.619Z,2.55
2018-10-12T14:06:38.684Z,2.60
2018-10-12T14:10:44.101Z,2.77
2018-10-12T14:14:53.355Z,3.17
2018-10-12T14:18:59.106Z,3.55
2018-10-12T14:23:04.126Z,3.83
2018-10-12T14:27:09.076Z,4.58
2018-10-12T14:31:12.559Z,3.50
2018-10-12T14:35:15.984Z,3.70
2018-10-12T14:39:19.343Z,3.90
2018-10-12T14:43:22.757Z,3.92
2018-10-12T14:47:26.463Z,3.70
2018-10-12T14:51:30.573Z,4.40
2018-10-12T14:55:40.450Z,3.67
2018-10-12T14:59:43.835Z,3.55
2018-10-12T15:10:15.845Z,3.53
2018-10-12T15:14:29.385Z,3.35
2018-10-12T15:18:32.809Z,3.72
2018-10-12T15:22:36.611Z,4.08
2018-10-12T15:26:40.045Z,3.92
2018-10-12T15:30:43.430Z,3.58
2018-10-12T15:47:43.108Z,3.65
2018-10-12T15:55:54.017Z,3.65
2018-10-12T15:59:57.509Z,3.90
2018-10-12T16:04:01.740Z,3.67
2018-10-12T16:08:05.077Z,4.17
2018-10-12T16:12:08.524Z,3.30
2018-10-12T16:16:11.910Z,3.90
2018-10-12T16:20:15.280Z,4.30
2018-10-12T16:24:18.669Z,4.60
2018-10-12T16:28:22.317Z,4.03
2018-10-12T16:32:25.680Z,4.17
2018-10-12T16:36:29.090Z,4.25
2018-10-12T16:40:32.484Z,3.90
2018-10-12T16:44:35.925Z,4.25
2018-10-12T16:48:39.314Z,4.00
2018-10-12T16:52:42.820Z,3.92
2018-10-12T16:56:46.196Z,4.17
2018-10-12T17:00:49.590Z,4.63
2018-10-12T17:04:53.142Z,3.70
2018-10-12T17:08:56.705Z,4.30
2018-10-12T17:13:00.676Z,4.03
2018-10-12T17:17:04.521Z,4.40
2018-10-12T17:21:08.193Z,4.33
2018-10-12T17:25:11.865Z,4.10
2018-10-12T17:29:15.548Z,3.70
2018-10-12T17:33:19.208Z,3.87
2018-10-12T17:37:22.845Z,4.10
2018-10-12T17:41:26.488Z,4.07
2018-10-12T17:45:30.202Z,4.07
2018-10-12T17:49:33.872Z,4.00
2018-10-12T17:53:37.830Z,4.30
2018-10-12T17:57:41.531Z,4.00
2018-10-12T18:01:45.184Z,4.10
2018-10-12T18:05:48.834Z,4.03
2018-10-12T18:09:52.473Z,4.67
2018-10-12T18:13:56.154Z,4.20
2018-10-12T18:17:59.874Z,4.50
2018-10-12T18:22:03.515Z,3.97
2018-10-12T18:26:07.244Z,4.20
2018-10-12T18:30:10.847Z,4.13
2018-10-12T18:34:14.457Z,4.30
2018-10-12T18:38:18.210Z,4.10
2018-10-12T18:42:22.106Z,3.80
2018-10-12T18:46:26.167Z,4.27
2018-10-12T18:50:29.852Z,4.10
2018-10-12T18:54:33.380Z,3.57
2018-10-12T18:58:37.022Z,3.53
2018-10-12T19:02:40.555Z,3.13
2018-10-12T19:06:44.680Z,3.00
2018-10-12T19:10:48.324Z,3.27
2018-10-12T19:14:51.816Z,3.10
2018-10-12T19:18:55.420Z,2.90
2018-10-12T19:22:58.936Z,3.13
2018-10-12T19:27:02.522Z,2.90
2018-10-12T19:31:07.012Z,2.80
2018-10-12T19:35:10.586Z,2.90
2018-10-12T19:39:14.228Z,2.90
2018-10-12T19:43:17.701Z,3.20
2018-10-12T19:47:21.209Z,3.33
2018-10-12T19:51:24.751Z,3.50
2018-10-12T19:55:28.316Z,3.30
2018-10-12T19:59:31.898Z,3.27
2018-10-12T20:03:35.540Z,3.03
2018-10-12T20:07:40.441Z,3.37
2018-10-12T20:11:44.065Z,3.47
2018-10-12T20:15:47.746Z,3.60
2018-10-12T20:19:51.496Z,3.40
2018-10-12T20:23:55.101Z,3.70
2018-10-12T20:27:58.753Z,3.97
2018-10-12T20:32:02.431Z,3.30
2018-10-12T20:36:05.968Z,3.50
2018-10-12T20:40:09.633Z,3.40
2018-10-12T20:44:13.262Z,3.77
2018-10-12T20:48:17.165Z,3.63
2018-10-12T20:52:20.745Z,3.57
2018-10-12T20:56:31.403Z,3.70
2018-10-12T21:00:35.080Z,3.93
2018-10-12T21:04:38.671Z,4.00
2018-10-12T21:08:42.075Z,3.97
2018-10-12T21:12:45.490Z,3.80
2018-10-12T21:16:57.648Z,4.10
2018-10-12T21:21:01.140Z,3.90
2018-10-12T21:31:25.448Z,4.40
2018-10-12T21:35:28.863Z,3.80
2018-10-12T21:39:32.276Z,3.70
2018-10-12T21:43:35.854Z,3.80
2018-10-12T21:47:39.283Z,3.73
2018-10-12T21:51:42.688Z,3.97
2018-10-12T21:55:46.092Z,3.60
2018-10-12T21:59:49.672Z,3.90
2018-10-12T22:03:53.099Z,3.53
2018-10-12T22:07:56.556Z,4.00
2018-10-12T22:11:59.969Z,4.00
2018-10-12T22:16:03.411Z,3.90
2018-10-12T22:20:07.140Z,3.83
2018-10-12T22:24:10.569Z,3.87
2018-10-12T22:28:14.033Z,4.23
2018-10-12T22:32:17.480Z,4.47
2018-10-12T22:36:20.946Z,4.20
2018-10-12T22:40:24.516Z,3.93
2018-10-12T22:44:27.932Z,3.90
2018-10-12T22:48:31.389Z,4.17
2018-10-12T22:52:34.821Z,3.93
2018-10-12T22:56:38.235Z,4.07
2018-10-12T23:00:41.683Z,4.10
2018-10-12T23:04:45.148Z,4.00
2018-10-12T23:08:48.601Z,4.20
2018-10-12T23:12:52.198Z,4.00
2018-10-12T23:16:55.610Z,4.13
2018-10-12T23:20:59.069Z,4.20
2018-10-12T23:25:02.558Z,3.87
2018-10-12T23:29:06.159Z,4.13
2018-10-12T23:33:21.029Z,4.10
2018-10-12T23:37:24.456Z,4.40
2018-10-12T23:41:28.139Z,4.30
2018-10-12T23:45:31.620Z,4.37
2018-10-12T23:49:35.060Z,4.40
2018-10-12T23:53:38.469Z,4.47
2018-10-12T23:57:41.889Z,4.33
